sensor_id;sensor_type;location;lat;lon;timestamp;temperature;humidity
29281;DHT22;25048;49.590;11.026;2023-07-28T00:00:35;16.10;99.90
29281;DHT22;25048;49.590;11.026;2023-07-28T00:03:02;16.20;99.90
29281;DHT22;25048;49.590;11.026;2023-07-28T00:05:30;16.20;99.90
29281;DHT22;25048;49.590;11.026;2023-07-28T00:07:57;16.20;99.90
29281;DHT22;25048;49.590;11.026;2023-07-28T00:10:25;16.20;99.90
29281;DHT22;25048;49.590;11.026;2023-07-28T00:12:52;16.20;99.90
29281;DHT22;25048;49.590;11.026;2023-07-28T00:15:20;16.20;99.90
29281;DHT22;25048;49.590;11.026;2023-07-28T00:17:47;16.20;99.90
29281;DHT22;25048;49.590;11.026;2023-07-28T00:20:15;16.20;99.90
29281;DHT22;25048;49.590;11.026;2023-07-28T00:22:42;16.20;99.90
29281;DHT22;25048;49.590;11.026;2023-07-28T00:25:10;16.20;99.90
29281;DHT22;25048;49.590;11.026;2023-07-28T00:27:37;16.20;99.90
29281;DHT22;25048;49.590;11.026;2023-07-28T00:30:05;16.10;99.90
29281;DHT22;25048;49.590;11.026;2023-07-28T00:32:33;16.10;99.90
29281;DHT22;25048;49.590;11.026;2023-07-28T00:35:01;16.10;99.90
29281;DHT22;25048;49.590;11.026;2023-07-28T00:37:28;16.10;99.90
29281;DHT22;25048;49.590;11.026;2023-07-28T00:39:56;16.10;99.90
29281;DHT22;25048;49.590;11.026;2023-07-28T00:42:23;16.20;99.90
29281;DHT22;25048;49.590;11.026;2023-07-28T00:44:51;16.10;99.90
29281;DHT22;25048;49.590;11.026;2023-07-28T00:47:18;16.10;99.90
29281;DHT22;25048;49.590;11.026;2023-07-28T00:49:46;16.20;99.90
29281;DHT22;25048;49.590;11.026;2023-07-28T00:52:13;16.10;99.90
29281;DHT22;25048;49.590;11.026;2023-07-28T00:54:41;16.10;99.90
29281;DHT22;25048;49.590;11.026;2023-07-28T00:57:08;16.10;99.90
29281;DHT22;25048;49.590;11.026;2023-07-28T00:59:36;16.10;99.90
29281;DHT22;25048;49.590;11.026;2023-07-28T01:02:04;16.10;99.90
29281;DHT22;25048;49.590;11.026;2023-07-28T01:04:31;16.10;99.90
29281;DHT22;25048;49.590;11.026;2023-07-28T01:07:10;16.10;99.90
29281;DHT22;25048;49.590;11.026;2023-07-28T01:09:53;16.10;99.90
29281;DHT22;25048;49.590;11.026;2023-07-28T01:12:21;16.10;99.90
29281;DHT22;25048;49.590;11.026;2023-07-28T01:14:50;16.10;99.90
29281;DHT22;25048;49.590;11.026;2023-07-28T01:17:18;16.10;99.90
29281;DHT22;25048;49.590;11.026;2023-07-28T01:19:46;16.10;99.90
29281;DHT22;25048;49.590;11.026;2023-07-28T01:22:47;16.10;99.90
29281;DHT22;25048;49.590;11.026;2023-07-28T01:25:18;16.10;99.90
29281;DHT22;25048;49.590;11.026;2023-07-28T01:27:46;16.10;99.90
29281;DHT22;25048;49.590;11.026;2023-07-28T01:30:15;16.10;99.90
29281;DHT22;25048;49.590;11.026;2023-07-28T01:32:43;16.10;99.90
29281;DHT22;25048;49.590;11.026;2023-07-28T01:35:11;16.10;99.90
29281;DHT22;25048;49.590;11.026;2023-07-28T01:37:38;16.10;99.90
29281;DHT22;25048;49.590;11.026;2023-07-28T01:40:07;16.10;99.90
29281;DHT22;25048;49.590;11.026;2023-07-28T01:42:34;16.10;99.90
29281;DHT22;25048;49.590;11.026;2023-07-28T01:45:02;16.10;99.90
29281;DHT22;25048;49.590;11.026;2023-07-28T01:47:29;16.10;99.90
29281;DHT22;25048;49.590;11.026;2023-07-28T01:49:57;16.10;99.90
29281;DHT22;25048;49.590;11.026;2023-07-28T01:52:24;16.10;99.90
29281;DHT22;25048;49.590;11.026;2023-07-28T01:54:52;16.10;99.90
29281;DHT22;25048;49.590;11.026;2023-07-28T01:57:19;16.10;99.90
29281;DHT22;25048;49.590;11.026;2023-07-28T01:59:47;16.10;99.90
29281;DHT22;25048;49.590;11.026;2023-07-28T02:02:14;16.10;99.90
29281;DHT22;25048;49.590;11.026;2023-07-28T02:04:42;16.10;99.90
29281;DHT22;25048;49.590;11.026;2023-07-28T02:07:09;16.10;99.90
29281;DHT22;25048;49.590;11.026;2023-07-28T02:09:37;16.10;99.90
29281;DHT22;25048;49.590;11.026;2023-07-28T02:12:04;16.10;99.90
29281;DHT22;25048;49.590;11.026;2023-07-28T02:14:32;16.10;99.90
29281;DHT22;25048;49.590;11.026;2023-07-28T02:16:59;16.10;99.90
29281;DHT22;25048;49.590;11.026;2023-07-28T02:19:27;16.10;99.90
29281;DHT22;25048;49.590;11.026;2023-07-28T02:21:54;16.10;99.90
29281;DHT22;25048;49.590;11.026;2023-07-28T02:24:22;16.10;99.90
29281;DHT22;25048;49.590;11.026;2023-07-28T02:26:49;16.00;99.90
29281;DHT22;25048;49.590;11.026;2023-07-28T02:29:17;16.00;99.90
29281;DHT22;25048;49.590;11.026;2023-07-28T02:31:44;16.00;99.90
29281;DHT22;25048;49.590;11.026;2023-07-28T02:34:12;16.10;99.90
29281;DHT22;25048;49.590;11.026;2023-07-28T02:36:39;16.10;99.90
29281;DHT22;25048;49.590;11.026;2023-07-28T02:39:07;16.10;99.90
29281;DHT22;25048;49.590;11.026;2023-07-28T02:41:34;16.10;99.90
29281;DHT22;25048;49.590;11.026;2023-07-28T02:44:02;16.10;99.90
29281;DHT22;25048;49.590;11.026;2023-07-28T02:46:29;16.10;99.90
29281;DHT22;25048;49.590;11.026;2023-07-28T02:48:57;16.20;99.90
29281;DHT22;25048;49.590;11.026;2023-07-28T02:51:24;16.20;99.90
29281;DHT22;25048;49.590;11.026;2023-07-28T02:53:52;16.20;99.90
29281;DHT22;25048;49.590;11.026;2023-07-28T02:56:20;16.20;99.90
29281;DHT22;25048;49.590;11.026;2023-07-28T02:58:49;16.20;99.90
29281;DHT22;25048;49.590;11.026;2023-07-28T03:01:16;16.30;99.90
29281;DHT22;25048;49.590;11.026;2023-07-28T03:03:44;16.30;99.90
29281;DHT22;25048;49.590;11.026;2023-07-28T03:06:12;16.40;99.90
29281;DHT22;25048;49.590;11.026;2023-07-28T03:08:39;16.40;99.90
29281;DHT22;25048;49.590;11.026;2023-07-28T03:11:08;16.40;99.90
29281;DHT22;25048;49.590;11.026;2023-07-28T03:13:35;16.40;99.90
29281;DHT22;25048;49.590;11.026;2023-07-28T03:16:03;16.40;99.90
29281;DHT22;25048;49.590;11.026;2023-07-28T03:18:30;16.40;99.90
29281;DHT22;25048;49.590;11.026;2023-07-28T03:20:58;16.40;99.90
29281;DHT22;25048;49.590;11.026;2023-07-28T03:23:25;16.40;99.90
29281;DHT22;25048;49.590;11.026;2023-07-28T03:25:53;16.40;99.90
29281;DHT22;25048;49.590;11.026;2023-07-28T03:28:20;16.40;99.90
29281;DHT22;25048;49.590;11.026;2023-07-28T03:30:48;16.40;99.90
29281;DHT22;25048;49.590;11.026;2023-07-28T03:33:15;16.40;99.90
29281;DHT22;25048;49.590;11.026;2023-07-28T03:35:43;16.40;99.90
29281;DHT22;25048;49.590;11.026;2023-07-28T03:38:10;16.30;99.90
29281;DHT22;25048;49.590;11.026;2023-07-28T03:40:38;16.40;99.90
29281;DHT22;25048;49.590;11.026;2023-07-28T03:43:05;16.30;99.90
29281;DHT22;25048;49.590;11.026;2023-07-28T03:45:33;16.30;99.90
29281;DHT22;25048;49.590;11.026;2023-07-28T03:48:00;16.30;99.90
29281;DHT22;25048;49.590;11.026;2023-07-28T03:50:28;16.30;99.90
29281;DHT22;25048;49.590;11.026;2023-07-28T03:52:55;16.30;99.90
29281;DHT22;25048;49.590;11.026;2023-07-28T03:55:23;16.30;99.90
29281;DHT22;25048;49.590;11.026;2023-07-28T03:57:50;16.20;99.90
29281;DHT22;25048;49.590;11.026;2023-07-28T04:00:18;16.20;99.90
29281;DHT22;25048;49.590;11.026;2023-07-28T04:02:45;16.30;99.90
29281;DHT22;25048;49.590;11.026;2023-07-28T04:05:13;16.20;99.90
29281;DHT22;25048;49.590;11.026;2023-07-28T04:07:41;16.20;99.90
29281;DHT22;25048;49.590;11.026;2023-07-28T04:10:08;16.20;99.90
29281;DHT22;25048;49.590;11.026;2023-07-28T04:12:36;16.20;99.90
29281;DHT22;25048;49.590;11.026;2023-07-28T04:15:03;16.20;99.90
29281;DHT22;25048;49.590;11.026;2023-07-28T04:17:31;16.20;99.90
29281;DHT22;25048;49.590;11.026;2023-07-28T04:19:59;16.20;99.90
29281;DHT22;25048;49.590;11.026;2023-07-28T04:22:27;16.30;99.90
29281;DHT22;25048;49.590;11.026;2023-07-28T04:24:54;16.30;99.90
29281;DHT22;25048;49.590;11.026;2023-07-28T04:27:22;16.30;99.90
29281;DHT22;25048;49.590;11.026;2023-07-28T04:29:49;16.30;99.90
29281;DHT22;25048;49.590;11.026;2023-07-28T04:32:17;16.30;99.90
29281;DHT22;25048;49.590;11.026;2023-07-28T04:34:44;16.30;99.90
29281;DHT22;25048;49.590;11.026;2023-07-28T04:37:12;16.30;99.90
29281;DHT22;25048;49.590;11.026;2023-07-28T04:39:39;16.40;99.90
29281;DHT22;25048;49.590;11.026;2023-07-28T04:42:07;16.40;99.90
29281;DHT22;25048;49.590;11.026;2023-07-28T04:44:37;16.30;99.90
29281;DHT22;25048;49.590;11.026;2023-07-28T04:47:05;16.30;99.90
29281;DHT22;25048;49.590;11.026;2023-07-28T04:49:32;16.30;99.90
29281;DHT22;25048;49.590;11.026;2023-07-28T04:52:00;16.40;99.90
29281;DHT22;25048;49.590;11.026;2023-07-28T04:54:27;16.30;99.90
29281;DHT22;25048;49.590;11.026;2023-07-28T04:56:55;16.40;99.90
29281;DHT22;25048;49.590;11.026;2023-07-28T04:59:22;16.30;99.90
29281;DHT22;25048;49.590;11.026;2023-07-28T05:01:50;16.30;99.90
29281;DHT22;25048;49.590;11.026;2023-07-28T05:04:17;16.30;99.90
29281;DHT22;25048;49.590;11.026;2023-07-28T05:06:45;16.40;99.90
29281;DHT22;25048;49.590;11.026;2023-07-28T05:09:13;16.40;99.90
29281;DHT22;25048;49.590;11.026;2023-07-28T05:11:40;16.40;99.90
29281;DHT22;25048;49.590;11.026;2023-07-28T05:14:08;16.40;99.90
29281;DHT22;25048;49.590;11.026;2023-07-28T05:16:35;16.40;99.90
29281;DHT22;25048;49.590;11.026;2023-07-28T05:19:07;16.40;99.90
29281;DHT22;25048;49.590;11.026;2023-07-28T05:21:35;16.50;99.90
29281;DHT22;25048;49.590;11.026;2023-07-28T05:24:03;16.50;99.90
29281;DHT22;25048;49.590;11.026;2023-07-28T05:26:30;16.50;99.90
29281;DHT22;25048;49.590;11.026;2023-07-28T05:28:58;16.60;99.90
29281;DHT22;25048;49.590;11.026;2023-07-28T05:31:25;16.60;99.90
29281;DHT22;25048;49.590;11.026;2023-07-28T05:33:52;16.60;99.90
29281;DHT22;25048;49.590;11.026;2023-07-28T05:36:20;16.60;99.90
29281;DHT22;25048;49.590;11.026;2023-07-28T05:38:47;16.60;99.90
29281;DHT22;25048;49.590;11.026;2023-07-28T05:41:16;16.60;99.90
29281;DHT22;25048;49.590;11.026;2023-07-28T05:43:43;16.60;99.90
29281;DHT22;25048;49.590;11.026;2023-07-28T05:46:11;16.70;99.90
29281;DHT22;25048;49.590;11.026;2023-07-28T05:48:38;16.70;99.90
29281;DHT22;25048;49.590;11.026;2023-07-28T05:51:06;16.70;99.90
29281;DHT22;25048;49.590;11.026;2023-07-28T05:53:33;16.70;99.90
29281;DHT22;25048;49.590;11.026;2023-07-28T05:56:01;16.70;99.90
29281;DHT22;25048;49.590;11.026;2023-07-28T05:58:28;16.80;99.90
29281;DHT22;25048;49.590;11.026;2023-07-28T06:00:56;16.80;99.90
29281;DHT22;25048;49.590;11.026;2023-07-28T06:03:24;16.80;99.90
29281;DHT22;25048;49.590;11.026;2023-07-28T06:05:52;16.80;99.90
29281;DHT22;25048;49.590;11.026;2023-07-28T06:08:20;16.80;99.90
29281;DHT22;25048;49.590;11.026;2023-07-28T06:10:47;16.80;99.90
29281;DHT22;25048;49.590;11.026;2023-07-28T06:13:15;16.80;99.90
29281;DHT22;25048;49.590;11.026;2023-07-28T06:15:43;16.80;99.90
29281;DHT22;25048;49.590;11.026;2023-07-28T06:18:10;16.80;99.90
29281;DHT22;25048;49.590;11.026;2023-07-28T06:20:38;16.80;99.90
29281;DHT22;25048;49.590;11.026;2023-07-28T06:23:07;16.80;99.90
29281;DHT22;25048;49.590;11.026;2023-07-28T06:25:34;16.80;99.90
29281;DHT22;25048;49.590;11.026;2023-07-28T06:28:04;16.80;99.90
29281;DHT22;25048;49.590;11.026;2023-07-28T06:30:31;16.90;99.90
29281;DHT22;25048;49.590;11.026;2023-07-28T06:32:59;16.90;99.90
29281;DHT22;25048;49.590;11.026;2023-07-28T06:35:26;16.90;99.90
29281;DHT22;25048;49.590;11.026;2023-07-28T06:37:54;16.90;99.90
29281;DHT22;25048;49.590;11.026;2023-07-28T06:40:21;16.90;99.90
29281;DHT22;25048;49.590;11.026;2023-07-28T06:42:49;17.00;99.90
29281;DHT22;25048;49.590;11.026;2023-07-28T06:45:16;17.00;99.90
29281;DHT22;25048;49.590;11.026;2023-07-28T06:47:44;17.10;99.90
29281;DHT22;25048;49.590;11.026;2023-07-28T06:50:12;17.10;99.90
29281;DHT22;25048;49.590;11.026;2023-07-28T06:52:40;17.20;99.90
29281;DHT22;25048;49.590;11.026;2023-07-28T06:55:07;17.20;99.90
29281;DHT22;25048;49.590;11.026;2023-07-28T06:57:35;17.20;99.90
29281;DHT22;25048;49.590;11.026;2023-07-28T07:00:02;17.20;99.90
29281;DHT22;25048;49.590;11.026;2023-07-28T07:02:30;17.20;99.90
29281;DHT22;25048;49.590;11.026;2023-07-28T07:04:57;17.20;99.90
29281;DHT22;25048;49.590;11.026;2023-07-28T07:07:25;17.20;99.90
29281;DHT22;25048;49.590;11.026;2023-07-28T07:09:53;17.20;99.90
29281;DHT22;25048;49.590;11.026;2023-07-28T07:12:21;17.20;99.90
29281;DHT22;25048;49.590;11.026;2023-07-28T07:14:49;17.20;99.90
29281;DHT22;25048;49.590;11.026;2023-07-28T07:17:16;17.20;99.90
29281;DHT22;25048;49.590;11.026;2023-07-28T07:19:44;17.20;99.90
29281;DHT22;25048;49.590;11.026;2023-07-28T07:22:11;17.20;99.90
29281;DHT22;25048;49.590;11.026;2023-07-28T07:24:39;17.10;99.90
29281;DHT22;25048;49.590;11.026;2023-07-28T07:27:06;17.20;99.90
29281;DHT22;25048;49.590;11.026;2023-07-28T07:29:36;17.20;99.90
29281;DHT22;25048;49.590;11.026;2023-07-28T07:32:04;17.30;99.90
29281;DHT22;25048;49.590;11.026;2023-07-28T07:34:34;17.30;99.90
29281;DHT22;25048;49.590;11.026;2023-07-28T07:37:03;17.30;99.90
29281;DHT22;25048;49.590;11.026;2023-07-28T07:39:31;17.50;99.90
29281;DHT22;25048;49.590;11.026;2023-07-28T07:42:00;17.50;99.90
29281;DHT22;25048;49.590;11.026;2023-07-28T07:44:28;17.60;99.90
29281;DHT22;25048;49.590;11.026;2023-07-28T07:46:55;17.60;99.90
29281;DHT22;25048;49.590;11.026;2023-07-28T07:49:23;17.60;99.90
29281;DHT22;25048;49.590;11.026;2023-07-28T07:51:51;17.60;99.90
29281;DHT22;25048;49.590;11.026;2023-07-28T07:54:18;17.70;99.90
29281;DHT22;25048;49.590;11.026;2023-07-28T07:56:46;17.70;99.90
29281;DHT22;25048;49.590;11.026;2023-07-28T07:59:13;17.70;99.90
29281;DHT22;25048;49.590;11.026;2023-07-28T08:01:41;17.80;99.90
29281;DHT22;25048;49.590;11.026;2023-07-28T08:04:08;17.80;99.90
29281;DHT22;25048;49.590;11.026;2023-07-28T08:06:37;17.80;99.90
29281;DHT22;25048;49.590;11.026;2023-07-28T08:09:04;17.80;99.90
29281;DHT22;25048;49.590;11.026;2023-07-28T08:11:32;17.90;99.90
29281;DHT22;25048;49.590;11.026;2023-07-28T08:14:00;17.90;99.90
29281;DHT22;25048;49.590;11.026;2023-07-28T08:16:28;17.90;99.90
29281;DHT22;25048;49.590;11.026;2023-07-28T08:18:55;17.90;99.90
29281;DHT22;25048;49.590;11.026;2023-07-28T08:21:23;18.00;99.90
29281;DHT22;25048;49.590;11.026;2023-07-28T08:23:50;18.00;99.90
29281;DHT22;25048;49.590;11.026;2023-07-28T08:26:18;18.10;99.90
29281;DHT22;25048;49.590;11.026;2023-07-28T08:28:45;18.10;99.90
29281;DHT22;25048;49.590;11.026;2023-07-28T08:31:13;18.20;99.90
29281;DHT22;25048;49.590;11.026;2023-07-28T08:33:40;18.10;99.90
29281;DHT22;25048;49.590;11.026;2023-07-28T08:36:08;18.20;99.90
29281;DHT22;25048;49.590;11.026;2023-07-28T08:38:35;18.20;99.90
29281;DHT22;25048;49.590;11.026;2023-07-28T08:41:03;18.20;99.90
29281;DHT22;25048;49.590;11.026;2023-07-28T08:43:32;18.20;99.90
29281;DHT22;25048;49.590;11.026;2023-07-28T08:45:59;18.30;99.90
29281;DHT22;25048;49.590;11.026;2023-07-28T08:48:27;18.30;99.90
29281;DHT22;25048;49.590;11.026;2023-07-28T08:50:55;18.30;99.90
29281;DHT22;25048;49.590;11.026;2023-07-28T08:53:22;18.30;99.90
29281;DHT22;25048;49.590;11.026;2023-07-28T08:55:50;18.30;99.90
29281;DHT22;25048;49.590;11.026;2023-07-28T08:58:22;18.30;99.90
29281;DHT22;25048;49.590;11.026;2023-07-28T09:00:51;18.30;99.90
29281;DHT22;25048;49.590;11.026;2023-07-28T09:03:20;18.40;99.90
29281;DHT22;25048;49.590;11.026;2023-07-28T09:05:48;18.40;99.90
29281;DHT22;25048;49.590;11.026;2023-07-28T09:08:16;18.50;99.90
29281;DHT22;25048;49.590;11.026;2023-07-28T09:10:46;18.50;99.90
29281;DHT22;25048;49.590;11.026;2023-07-28T09:13:16;18.60;99.90
29281;DHT22;25048;49.590;11.026;2023-07-28T09:15:44;18.70;99.90
29281;DHT22;25048;49.590;11.026;2023-07-28T09:18:16;18.80;99.90
29281;DHT22;25048;49.590;11.026;2023-07-28T09:20:44;18.90;99.90
29281;DHT22;25048;49.590;11.026;2023-07-28T09:23:13;18.90;99.90
29281;DHT22;25048;49.590;11.026;2023-07-28T09:25:42;19.00;99.90
29281;DHT22;25048;49.590;11.026;2023-07-28T09:28:09;19.00;99.90
29281;DHT22;25048;49.590;11.026;2023-07-28T09:30:49;19.10;99.90
29281;DHT22;25048;49.590;11.026;2023-07-28T09:33:28;19.20;99.90
29281;DHT22;25048;49.590;11.026;2023-07-28T09:35:57;19.20;99.90
29281;DHT22;25048;49.590;11.026;2023-07-28T09:38:26;19.30;99.90
29281;DHT22;25048;49.590;11.026;2023-07-28T09:40:56;19.30;99.90
29281;DHT22;25048;49.590;11.026;2023-07-28T09:43:25;19.20;99.90
29281;DHT22;25048;49.590;11.026;2023-07-28T09:45:54;19.20;99.90
29281;DHT22;25048;49.590;11.026;2023-07-28T09:48:24;19.10;99.90
29281;DHT22;25048;49.590;11.026;2023-07-28T09:50:51;19.10;99.90
29281;DHT22;25048;49.590;11.026;2023-07-28T09:53:20;19.00;99.90
29281;DHT22;25048;49.590;11.026;2023-07-28T09:55:49;19.00;99.90
29281;DHT22;25048;49.590;11.026;2023-07-28T09:58:18;19.00;99.90
29281;DHT22;25048;49.590;11.026;2023-07-28T10:00:49;19.10;99.90
29281;DHT22;25048;49.590;11.026;2023-07-28T10:03:17;19.30;99.90
29281;DHT22;25048;49.590;11.026;2023-07-28T10:05:45;19.30;99.90
29281;DHT22;25048;49.590;11.026;2023-07-28T10:08:14;19.50;99.90
29281;DHT22;25048;49.590;11.026;2023-07-28T10:10:43;19.60;99.90
29281;DHT22;25048;49.590;11.026;2023-07-28T10:13:21;19.70;99.90
29281;DHT22;25048;49.590;11.026;2023-07-28T10:15:41;19.80;99.90
29281;DHT22;25048;49.590;11.026;2023-07-28T10:18:09;19.90;99.90
29281;DHT22;25048;49.590;11.026;2023-07-28T10:20:38;20.00;99.90
29281;DHT22;25048;49.590;11.026;2023-07-28T10:23:11;20.10;99.90
29281;DHT22;25048;49.590;11.026;2023-07-28T10:25:37;20.10;99.90
29281;DHT22;25048;49.590;11.026;2023-07-28T10:28:07;20.20;99.90
29281;DHT22;25048;49.590;11.026;2023-07-28T10:30:37;20.30;99.90
29281;DHT22;25048;49.590;11.026;2023-07-28T10:33:05;20.50;99.90
29281;DHT22;25048;49.590;11.026;2023-07-28T10:35:33;20.70;99.90
29281;DHT22;25048;49.590;11.026;2023-07-28T10:40:49;21.20;99.90
29281;DHT22;25048;49.590;11.026;2023-07-28T10:43:17;21.40;99.90
29281;DHT22;25048;49.590;11.026;2023-07-28T10:45:45;21.50;99.90
29281;DHT22;25048;49.590;11.026;2023-07-28T10:48:13;21.50;99.90
29281;DHT22;25048;49.590;11.026;2023-07-28T10:50:40;21.40;99.90
29281;DHT22;25048;49.590;11.026;2023-07-28T10:53:10;21.40;99.90
29281;DHT22;25048;49.590;11.026;2023-07-28T10:55:38;21.40;99.90
29281;DHT22;25048;49.590;11.026;2023-07-28T10:58:06;21.50;99.90
29281;DHT22;25048;49.590;11.026;2023-07-28T11:00:34;21.60;99.90
29281;DHT22;25048;49.590;11.026;2023-07-28T11:03:02;21.70;99.90
29281;DHT22;25048;49.590;11.026;2023-07-28T11:05:31;21.80;99.90
29281;DHT22;25048;49.590;11.026;2023-07-28T11:08:00;21.80;99.90
29281;DHT22;25048;49.590;11.026;2023-07-28T11:10:31;21.60;99.90
29281;DHT22;25048;49.590;11.026;2023-07-28T11:13:01;21.50;99.90
29281;DHT22;25048;49.590;11.026;2023-07-28T11:15:30;21.40;99.90
29281;DHT22;25048;49.590;11.026;2023-07-28T11:17:57;21.40;99.90
29281;DHT22;25048;49.590;11.026;2023-07-28T11:20:26;21.60;99.90
29281;DHT22;25048;49.590;11.026;2023-07-28T11:23:04;21.80;99.90
29281;DHT22;25048;49.590;11.026;2023-07-28T11:25:29;21.90;99.90
29281;DHT22;25048;49.590;11.026;2023-07-28T11:27:57;21.90;99.90
29281;DHT22;25048;49.590;11.026;2023-07-28T11:30:24;22.00;99.90
29281;DHT22;25048;49.590;11.026;2023-07-28T11:32:52;22.00;99.90
29281;DHT22;25048;49.590;11.026;2023-07-28T11:35:21;22.00;99.90
29281;DHT22;25048;49.590;11.026;2023-07-28T11:37:51;22.10;99.90
29281;DHT22;25048;49.590;11.026;2023-07-28T11:40:23;22.10;99.90
29281;DHT22;25048;49.590;11.026;2023-07-28T11:42:54;22.20;99.90
29281;DHT22;25048;49.590;11.026;2023-07-28T11:45:23;22.20;99.90
29281;DHT22;25048;49.590;11.026;2023-07-28T11:48:01;22.40;99.90
29281;DHT22;25048;49.590;11.026;2023-07-28T11:50:40;22.80;99.90
29281;DHT22;25048;49.590;11.026;2023-07-28T11:53:01;23.00;99.90
29281;DHT22;25048;49.590;11.026;2023-07-28T11:55:29;23.20;99.90
29281;DHT22;25048;49.590;11.026;2023-07-28T11:57:57;23.40;99.90
29281;DHT22;25048;49.590;11.026;2023-07-28T12:00:32;23.60;99.90
29281;DHT22;25048;49.590;11.026;2023-07-28T12:03:07;24.00;99.90
29281;DHT22;25048;49.590;11.026;2023-07-28T12:05:41;24.70;99.90
29281;DHT22;25048;49.590;11.026;2023-07-28T12:08:10;24.90;99.90
29281;DHT22;25048;49.590;11.026;2023-07-28T12:10:37;24.90;99.90
29281;DHT22;25048;49.590;11.026;2023-07-28T12:13:08;24.70;99.90
29281;DHT22;25048;49.590;11.026;2023-07-28T12:15:40;24.60;99.90
29281;DHT22;25048;49.590;11.026;2023-07-28T12:18:14;24.40;99.90
29281;DHT22;25048;49.590;11.026;2023-07-28T12:20:43;24.30;99.90
29281;DHT22;25048;49.590;11.026;2023-07-28T12:23:15;24.20;99.90
29281;DHT22;25048;49.590;11.026;2023-07-28T12:25:44;24.10;99.90
29281;DHT22;25048;49.590;11.026;2023-07-28T12:28:12;24.40;99.90
29281;DHT22;25048;49.590;11.026;2023-07-28T12:30:40;24.50;99.90
29281;DHT22;25048;49.590;11.026;2023-07-28T12:33:07;24.60;99.90
29281;DHT22;25048;49.590;11.026;2023-07-28T12:35:35;24.60;99.90
29281;DHT22;25048;49.590;11.026;2023-07-28T12:38:06;24.90;99.90
29281;DHT22;25048;49.590;11.026;2023-07-28T12:40:34;24.90;99.90
29281;DHT22;25048;49.590;11.026;2023-07-28T12:43:03;24.80;99.90
29281;DHT22;25048;49.590;11.026;2023-07-28T12:45:31;24.60;99.90
29281;DHT22;25048;49.590;11.026;2023-07-28T12:47:59;24.60;99.90
29281;DHT22;25048;49.590;11.026;2023-07-28T12:50:27;24.60;99.90
29281;DHT22;25048;49.590;11.026;2023-07-28T12:52:55;24.50;99.90
29281;DHT22;25048;49.590;11.026;2023-07-28T12:55:22;24.50;99.90
29281;DHT22;25048;49.590;11.026;2023-07-28T12:57:50;24.40;99.90
29281;DHT22;25048;49.590;11.026;2023-07-28T13:00:17;24.40;99.90
29281;DHT22;25048;49.590;11.026;2023-07-28T13:02:45;24.80;99.90
29281;DHT22;25048;49.590;11.026;2023-07-28T13:05:13;25.10;99.90
29281;DHT22;25048;49.590;11.026;2023-07-28T13:07:43;25.20;99.90
29281;DHT22;25048;49.590;11.026;2023-07-28T13:10:11;25.40;99.90
29281;DHT22;25048;49.590;11.026;2023-07-28T13:12:39;25.40;99.90
29281;DHT22;25048;49.590;11.026;2023-07-28T13:15:07;25.10;99.90
29281;DHT22;25048;49.590;11.026;2023-07-28T13:17:34;25.00;99.90
29281;DHT22;25048;49.590;11.026;2023-07-28T13:20:02;24.80;99.90
29281;DHT22;25048;49.590;11.026;2023-07-28T13:24:56;24.60;99.90
29281;DHT22;25048;49.590;11.026;2023-07-28T13:27:23;24.60;99.90
29281;DHT22;25048;49.590;11.026;2023-07-28T13:29:51;24.70;99.90
29281;DHT22;25048;49.590;11.026;2023-07-28T13:32:23;24.60;99.90
29281;DHT22;25048;49.590;11.026;2023-07-28T13:34:51;24.60;99.90
29281;DHT22;25048;49.590;11.026;2023-07-28T13:37:19;24.50;99.90
29281;DHT22;25048;49.590;11.026;2023-07-28T13:39:47;24.50;99.90
29281;DHT22;25048;49.590;11.026;2023-07-28T13:42:14;24.40;99.90
29281;DHT22;25048;49.590;11.026;2023-07-28T13:44:43;24.50;99.90
29281;DHT22;25048;49.590;11.026;2023-07-28T13:47:10;24.60;99.90
29281;DHT22;25048;49.590;11.026;2023-07-28T13:49:38;24.70;99.90
29281;DHT22;25048;49.590;11.026;2023-07-28T13:52:06;24.70;99.90
29281;DHT22;25048;49.590;11.026;2023-07-28T13:54:33;24.60;99.90
29281;DHT22;25048;49.590;11.026;2023-07-28T13:57:01;24.70;99.90
29281;DHT22;25048;49.590;11.026;2023-07-28T13:59:29;24.90;99.90
29281;DHT22;25048;49.590;11.026;2023-07-28T14:01:56;25.10;99.90
29281;DHT22;25048;49.590;11.026;2023-07-28T14:04:24;25.10;99.90
29281;DHT22;25048;49.590;11.026;2023-07-28T14:06:52;25.00;99.90
29281;DHT22;25048;49.590;11.026;2023-07-28T14:09:19;25.00;99.90
29281;DHT22;25048;49.590;11.026;2023-07-28T14:11:47;24.90;99.90
29281;DHT22;25048;49.590;11.026;2023-07-28T14:14:14;24.90;99.90
29281;DHT22;25048;49.590;11.026;2023-07-28T14:16:42;24.80;99.90
29281;DHT22;25048;49.590;11.026;2023-07-28T14:19:09;24.70;99.90
29281;DHT22;25048;49.590;11.026;2023-07-28T14:21:37;24.50;99.90
29281;DHT22;25048;49.590;11.026;2023-07-28T14:24:05;24.40;99.90
29281;DHT22;25048;49.590;11.026;2023-07-28T14:26:33;24.40;99.90
29281;DHT22;25048;49.590;11.026;2023-07-28T14:29:00;24.30;99.90
29281;DHT22;25048;49.590;11.026;2023-07-28T14:31:28;24.30;99.90
29281;DHT22;25048;49.590;11.026;2023-07-28T14:33:55;24.20;99.90
29281;DHT22;25048;49.590;11.026;2023-07-28T14:36:23;24.30;99.90
29281;DHT22;25048;49.590;11.026;2023-07-28T14:38:50;24.30;99.90
29281;DHT22;25048;49.590;11.026;2023-07-28T14:41:18;24.30;99.90
29281;DHT22;25048;49.590;11.026;2023-07-28T14:43:46;24.20;99.90
29281;DHT22;25048;49.590;11.026;2023-07-28T14:46:13;24.20;99.90
29281;DHT22;25048;49.590;11.026;2023-07-28T14:48:41;24.20;99.90
29281;DHT22;25048;49.590;11.026;2023-07-28T14:51:08;24.40;99.90
29281;DHT22;25048;49.590;11.026;2023-07-28T14:53:37;24.50;99.90
29281;DHT22;25048;49.590;11.026;2023-07-28T14:56:06;24.50;99.90
29281;DHT22;25048;49.590;11.026;2023-07-28T14:58:34;24.60;99.90
29281;DHT22;25048;49.590;11.026;2023-07-28T15:01:02;24.70;99.90
29281;DHT22;25048;49.590;11.026;2023-07-28T15:03:31;24.70;99.90
29281;DHT22;25048;49.590;11.026;2023-07-28T15:06:00;24.70;99.90
29281;DHT22;25048;49.590;11.026;2023-07-28T15:08:28;24.60;99.90
29281;DHT22;25048;49.590;11.026;2023-07-28T15:10:56;24.50;99.90
29281;DHT22;25048;49.590;11.026;2023-07-28T15:13:24;24.50;99.90
29281;DHT22;25048;49.590;11.026;2023-07-28T15:15:52;24.40;99.90
29281;DHT22;25048;49.590;11.026;2023-07-28T15:18:19;24.40;99.90
29281;DHT22;25048;49.590;11.026;2023-07-28T15:20:46;24.30;99.90
29281;DHT22;25048;49.590;11.026;2023-07-28T15:23:14;24.20;99.90
29281;DHT22;25048;49.590;11.026;2023-07-28T15:25:41;24.20;99.90